createdAt,value
2018-08-03T00:01:58.962Z,24.70
2018-08-03T00:04:27.195Z,24.70
2018-08-03T00:06:55.377Z,24.70
2018-08-03T00:09:23.518Z,24.60
2018-08-03T00:11:51.711Z,24.60
2018-08-03T00:14:19.977Z,24.50
2018-08-03T00:16:48.175Z,24.50
2018-08-03T00:19:16.354Z,24.40
2018-08-03T00:21:44.494Z,24.40
2018-08-03T00:24:12.651Z,24.50
2018-08-03T00:26:40.795Z,24.50
2018-08-03T00:29:09.130Z,24.50
2018-08-03T00:31:37.325Z,24.50
2018-08-03T00:34:05.503Z,24.50
2018-08-03T00:36:33.646Z,24.40
2018-08-03T00:39:01.876Z,24.40
2018-08-03T00:41:30.030Z,24.40
2018-08-03T00:43:58.290Z,24.30
2018-08-03T00:46:26.486Z,24.30
2018-08-03T00:48:54.645Z,24.30
2018-08-03T00:51:22.850Z,24.10
2018-08-03T00:53:51.019Z,24.10
2018-08-03T00:56:19.162Z,24.10
2018-08-03T00:58:47.331Z,24.10
2018-08-03T01:01:15.513Z,24.00
2018-08-03T01:03:43.673Z,23.90
2018-08-03T01:06:11.831Z,24.00
2018-08-03T01:08:39.970Z,23.90
2018-08-03T01:11:08.098Z,23.90
2018-08-03T01:13:36.254Z,23.90
2018-08-03T01:16:04.411Z,23.80
2018-08-03T01:18:32.540Z,23.90
2018-08-03T01:21:00.664Z,23.80
2018-08-03T01:23:28.786Z,23.80
2018-08-03T01:25:57.018Z,23.80
2018-08-03T01:28:25.186Z,23.80
2018-08-03T01:30:53.364Z,23.80
2018-08-03T01:33:21.481Z,23.80
2018-08-03T01:35:49.606Z,23.80
2018-08-03T01:38:17.894Z,23.70
2018-08-03T01:40:46.042Z,23.70
2018-08-03T01:43:14.196Z,23.60
2018-08-03T01:45:42.302Z,23.60
2018-08-03T01:48:10.435Z,23.50
2018-08-03T01:50:38.545Z,23.50
2018-08-03T01:53:06.695Z,23.40
2018-08-03T01:55:34.806Z,23.40
2018-08-03T01:58:02.934Z,23.40
2018-08-03T02:00:31.067Z,23.40
2018-08-03T02:02:59.191Z,23.40
2018-08-03T02:05:27.330Z,23.40
2018-08-03T02:07:55.466Z,23.30
2018-08-03T02:10:23.588Z,23.30
2018-08-03T02:12:51.711Z,23.20
2018-08-03T02:15:19.836Z,23.10
2018-08-03T02:17:47.970Z,23.10
2018-08-03T02:20:16.094Z,23.10
2018-08-03T02:22:44.226Z,23.10
2018-08-03T02:25:12.343Z,23.20
2018-08-03T02:27:40.471Z,23.20
2018-08-03T02:30:08.622Z,23.30
2018-08-03T02:32:36.777Z,23.20
2018-08-03T02:35:05.094Z,23.10
2018-08-03T02:37:33.258Z,23.10
2018-08-03T02:40:01.418Z,23.00
2018-08-03T02:42:29.574Z,23.00
2018-08-03T02:47:32.387Z,22.60
2018-08-03T02:50:00.546Z,22.50
2018-08-03T02:52:28.698Z,22.40
2018-08-03T02:54:56.860Z,22.40
2018-08-03T02:57:25.055Z,22.30
2018-08-03T02:59:53.241Z,22.30
2018-08-03T03:02:21.399Z,22.30
2018-08-03T03:04:49.542Z,22.30
2018-08-03T03:07:17.696Z,22.40
2018-08-03T03:09:46.014Z,22.40
2018-08-03T03:12:14.171Z,22.40
2018-08-03T03:14:42.345Z,22.50
2018-08-03T03:17:10.521Z,22.50
2018-08-03T03:19:38.825Z,22.40
2018-08-03T03:22:06.984Z,22.40
2018-08-03T03:24:35.134Z,22.20
2018-08-03T03:27:03.299Z,22.10
2018-08-03T03:29:31.466Z,22.00
2018-08-03T03:31:59.676Z,21.90
2018-08-03T03:34:27.783Z,21.90
2018-08-03T03:36:55.954Z,21.80
2018-08-03T03:39:24.283Z,21.80
2018-08-03T03:41:52.440Z,21.80
2018-08-03T03:44:20.582Z,21.80
2018-08-03T03:46:48.735Z,21.80
2018-08-03T03:49:16.882Z,21.60
2018-08-03T03:51:45.050Z,21.60
2018-08-03T03:54:13.191Z,21.70
2018-08-03T03:56:41.342Z,21.70
2018-08-03T03:59:09.504Z,21.70
2018-08-03T04:01:37.671Z,21.70
2018-08-03T04:04:06.186Z,21.70
2018-08-03T04:06:34.335Z,21.80
2018-08-03T04:09:02.479Z,21.80
2018-08-03T04:11:30.645Z,21.80
2018-08-03T04:13:58.785Z,21.80
2018-08-03T04:16:26.951Z,21.80
2018-08-03T04:18:55.110Z,21.80
2018-08-03T04:21:23.290Z,21.90
2018-08-03T04:23:51.454Z,21.80
2018-08-03T04:26:19.621Z,21.90
2018-08-03T04:28:47.761Z,21.90
2018-08-03T04:31:16.002Z,21.90
2018-08-03T04:33:44.159Z,21.90
2018-08-03T04:36:12.376Z,22.00
2018-08-03T04:38:40.526Z,22.00
2018-08-03T04:41:08.671Z,22.00
2018-08-03T04:43:36.835Z,22.00
2018-08-03T04:46:04.979Z,21.90
2018-08-03T04:48:33.177Z,21.90
2018-08-03T04:51:01.330Z,21.90
2018-08-03T04:53:29.473Z,22.00
2018-08-03T04:55:57.627Z,22.00
2018-08-03T04:58:25.782Z,22.00
2018-08-03T05:00:54.106Z,22.00
2018-08-03T05:03:22.389Z,22.00
2018-08-03T05:05:50.583Z,21.90
2018-08-03T05:08:18.762Z,21.70
2018-08-03T05:10:46.906Z,21.50
2018-08-03T05:13:15.107Z,21.40
2018-08-03T05:15:43.323Z,21.40
2018-08-03T05:18:11.483Z,21.40
2018-08-03T05:20:39.678Z,21.30
2018-08-03T05:23:07.837Z,21.30
2018-08-03T05:25:36.003Z,21.40
2018-08-03T05:28:04.210Z,21.40
2018-08-03T05:30:32.393Z,21.40
2018-08-03T05:33:00.567Z,21.50
2018-08-03T05:35:28.780Z,21.50
2018-08-03T05:37:56.894Z,21.60
2018-08-03T05:40:25.063Z,21.60
2018-08-03T05:42:53.226Z,21.60
2018-08-03T05:45:21.475Z,21.70
2018-08-03T05:47:49.641Z,21.70
2018-08-03T05:50:17.854Z,21.80
2018-08-03T05:52:45.954Z,21.90
2018-08-03T05:55:14.146Z,21.90
2018-08-03T05:57:42.294Z,22.00
2018-08-03T06:00:10.478Z,22.10
2018-08-03T06:02:38.645Z,22.10
2018-08-03T06:05:07.531Z,22.20
2018-08-03T06:07:35.686Z,22.20
2018-08-03T06:10:03.869Z,22.30
2018-08-03T06:12:32.186Z,22.40
2018-08-03T06:15:00.355Z,22.40
2018-08-03T06:17:28.591Z,22.50
2018-08-03T06:19:56.790Z,22.50
2018-08-03T06:22:25.045Z,22.60
2018-08-03T06:24:53.354Z,22.70
2018-08-03T06:27:21.522Z,22.70
2018-08-03T06:29:49.739Z,22.80
2018-08-03T06:32:17.974Z,22.80
2018-08-03T06:34:46.130Z,22.90
2018-08-03T06:37:14.290Z,22.90
2018-08-03T06:39:42.442Z,23.00
2018-08-03T06:42:10.611Z,23.10
2018-08-03T06:44:38.754Z,23.10
2018-08-03T06:47:07.028Z,23.20
2018-08-03T06:49:35.235Z,23.30
2018-08-03T06:52:03.432Z,23.40
2018-08-03T06:54:31.664Z,23.50
2018-08-03T06:56:59.815Z,23.60
2018-08-03T06:59:27.945Z,23.70
2018-08-03T07:01:56.274Z,23.80
2018-08-03T07:04:24.475Z,23.80
2018-08-03T07:06:52.821Z,23.90
2018-08-03T07:09:21.547Z,23.90
2018-08-03T07:11:53.616Z,24.00
2018-08-03T07:14:21.751Z,24.00
2018-08-03T07:16:50.394Z,24.10
2018-08-03T07:19:18.590Z,24.20
2018-08-03T07:21:46.735Z,24.30
2018-08-03T07:24:14.879Z,24.30
2018-08-03T07:26:43.092Z,24.40
2018-08-03T07:29:11.274Z,24.50
2018-08-03T07:31:39.473Z,24.60
2018-08-03T07:34:07.578Z,24.60
2018-08-03T07:36:36.187Z,24.60
2018-08-03T07:39:06.697Z,24.70
2018-08-03T07:41:34.915Z,24.70
2018-08-03T07:44:03.304Z,24.70
2018-08-03T07:46:31.446Z,24.80
2018-08-03T07:48:59.675Z,24.80
2018-08-03T07:51:27.824Z,24.80
2018-08-03T07:53:55.982Z,24.90
2018-08-03T07:56:24.226Z,25.00
2018-08-03T07:58:52.548Z,25.10
2018-08-03T08:01:20.722Z,25.20
2018-08-03T08:03:48.889Z,25.30
2018-08-03T08:06:17.073Z,25.50
2018-08-03T08:08:45.202Z,25.80
2018-08-03T08:11:13.350Z,26.20
2018-08-03T08:13:41.502Z,26.60
2018-08-03T08:16:09.679Z,27.00
2018-08-03T08:18:37.826Z,27.40
2018-08-03T08:21:05.994Z,27.70
2018-08-03T08:23:34.130Z,28.00
2018-08-03T08:26:02.365Z,28.00
2018-08-03T08:28:30.483Z,28.10
2018-08-03T08:30:58.642Z,28.10
2018-08-03T08:33:26.803Z,28.10
2018-08-03T08:35:55.102Z,28.30
2018-08-03T08:38:23.244Z,28.40
2018-08-03T08:40:51.418Z,28.40
2018-08-03T08:43:19.582Z,28.50
2018-08-03T08:45:47.738Z,28.50
2018-08-03T08:48:15.915Z,28.50
2018-08-03T08:50:44.109Z,28.50
2018-08-03T08:53:12.308Z,28.50
2018-08-03T08:55:40.409Z,28.60
2018-08-03T08:58:15.219Z,28.50
2018-08-03T09:00:43.446Z,28.40
2018-08-03T09:03:11.530Z,28.40
2018-08-03T09:05:39.714Z,28.40
2018-08-03T09:08:07.871Z,28.20
2018-08-03T09:10:36.071Z,28.10
2018-08-03T09:13:04.374Z,28.10
2018-08-03T09:15:32.508Z,28.10
2018-08-03T09:18:00.754Z,28.20
2018-08-03T09:20:28.935Z,28.40
2018-08-03T09:22:57.086Z,28.60
2018-08-03T09:25:25.274Z,28.80
2018-08-03T09:27:53.444Z,29.00
2018-08-03T09:30:21.666Z,29.10
2018-08-03T09:32:49.989Z,29.10
2018-08-03T09:35:18.166Z,29.20
2018-08-03T09:37:46.324Z,29.30
2018-08-03T09:40:14.475Z,29.50
2018-08-03T09:42:43.477Z,29.80
2018-08-03T09:45:11.646Z,29.80
2018-08-03T09:47:39.813Z,29.80
2018-08-03T09:50:07.978Z,29.90
2018-08-03T09:52:36.145Z,30.00
2018-08-03T09:55:04.396Z,30.10
2018-08-03T09:57:32.642Z,30.10
2018-08-03T10:00:00.819Z,30.10
2018-08-03T10:02:28.998Z,30.20
2018-08-03T10:04:57.134Z,30.30
2018-08-03T10:07:25.341Z,30.20
2018-08-03T10:09:53.578Z,30.10
2018-08-03T10:12:21.711Z,29.90
2018-08-03T10:14:49.898Z,29.90
2018-08-03T10:17:18.789Z,29.90
2018-08-03T10:19:46.939Z,30.00
2018-08-03T10:22:15.081Z,30.10
2018-08-03T10:24:43.246Z,30.30
2018-08-03T10:27:11.389Z,30.50
2018-08-03T10:29:39.592Z,30.70
2018-08-03T10:32:07.956Z,30.80
2018-08-03T10:34:36.126Z,30.90
2018-08-03T10:37:04.310Z,30.90
2018-08-03T10:39:32.455Z,30.70
2018-08-03T10:42:00.626Z,30.70
2018-08-03T10:44:28.817Z,30.70
2018-08-03T10:46:56.958Z,30.70
2018-08-03T10:49:25.115Z,30.80
2018-08-03T10:51:53.270Z,30.90
2018-08-03T10:54:21.434Z,31.10
2018-08-03T10:56:49.650Z,31.40
2018-08-03T11:01:45.805Z,31.50
2018-08-03T11:04:13.901Z,31.50
2018-08-03T11:06:42.113Z,31.60
2018-08-03T11:09:10.631Z,31.70
2018-08-03T11:11:39.012Z,31.60
2018-08-03T11:14:07.182Z,31.60
2018-08-03T11:16:35.399Z,31.70
2018-08-03T11:19:03.580Z,31.70
2018-08-03T11:21:31.755Z,31.70
2018-08-03T11:23:59.942Z,31.70
2018-08-03T11:26:28.053Z,31.70
2018-08-03T11:28:56.228Z,31.80
2018-08-03T11:31:24.385Z,31.90
2018-08-03T11:33:52.554Z,31.90
2018-08-03T11:36:20.728Z,32.00
2018-08-03T11:38:49.829Z,32.00
2018-08-03T11:41:17.973Z,32.20
2018-08-03T11:43:46.146Z,32.20
2018-08-03T11:46:14.302Z,32.20
2018-08-03T11:48:42.446Z,32.20
2018-08-03T11:51:10.633Z,32.30
2018-08-03T11:53:38.772Z,32.30
2018-08-03T11:58:35.180Z,32.40
2018-08-03T12:01:03.322Z,32.40
2018-08-03T12:03:31.547Z,32.40
2018-08-03T12:05:59.682Z,32.50
2018-08-03T12:08:27.829Z,32.60
2018-08-03T12:10:55.994Z,32.80
2018-08-03T12:13:24.162Z,32.70
2018-08-03T12:15:52.306Z,32.70
2018-08-03T12:18:20.466Z,32.80
2018-08-03T12:20:48.614Z,32.80
2018-08-03T12:25:44.702Z,32.90
2018-08-03T12:28:13.043Z,32.90
2018-08-03T12:30:41.197Z,33.00
2018-08-03T12:33:09.494Z,33.00
2018-08-03T12:35:37.646Z,33.10
2018-08-03T12:38:06.166Z,33.10
2018-08-03T12:40:34.326Z,33.10
2018-08-03T12:43:02.522Z,33.10
2018-08-03T12:45:33.997Z,33.10
2018-08-03T12:47:59.066Z,33.20
2018-08-03T12:50:27.215Z,33.20
2018-08-03T12:52:55.645Z,33.30
2018-08-03T12:55:24.010Z,33.40
2018-08-03T12:57:52.195Z,33.40
2018-08-03T13:00:20.350Z,33.40
2018-08-03T13:02:48.502Z,33.40
2018-08-03T13:05:16.734Z,33.40
2018-08-03T13:07:44.968Z,33.50
2018-08-03T13:10:13.092Z,33.50
2018-08-03T13:12:41.244Z,33.40
2018-08-03T13:15:09.750Z,33.50
2018-08-03T13:17:37.962Z,33.60
2018-08-03T13:20:06.510Z,33.70
2018-08-03T13:22:34.690Z,33.80
2018-08-03T13:25:02.903Z,33.90
2018-08-03T13:27:31.055Z,33.90
2018-08-03T13:29:59.214Z,33.90
2018-08-03T13:32:27.390Z,34.10
2018-08-03T13:34:55.566Z,34.10
2018-08-03T13:37:23.730Z,34.10
2018-08-03T13:39:51.889Z,34.10
2018-08-03T13:42:20.078Z,34.10
2018-08-03T13:44:48.251Z,34.10
2018-08-03T13:47:16.414Z,34.10
2018-08-03T13:49:44.574Z,34.10
2018-08-03T13:52:12.723Z,34.00
2018-08-03T13:54:40.924Z,34.10
2018-08-03T13:57:09.069Z,34.00
2018-08-03T13:59:37.222Z,34.10
2018-08-03T14:02:19.963Z,34.00
2018-08-03T14:04:48.124Z,34.00
2018-08-03T14:07:16.281Z,33.90
2018-08-03T14:09:44.474Z,33.90
2018-08-03T14:12:12.785Z,33.90
2018-08-03T14:14:41.562Z,33.90
2018-08-03T14:17:10.246Z,33.90
2018-08-03T14:19:38.452Z,33.90
2018-08-03T14:22:06.616Z,33.90
2018-08-03T14:24:35.309Z,33.80
2018-08-03T14:27:04.137Z,33.70
2018-08-03T14:29:32.336Z,33.60
2018-08-03T14:32:00.534Z,33.50
2018-08-03T14:34:28.722Z,33.40
2018-08-03T14:36:57.109Z,33.30
2018-08-03T14:39:25.335Z,33.20
2018-08-03T14:41:53.474Z,33.10
2018-08-03T14:44:21.688Z,33.00
2018-08-03T14:46:49.981Z,33.00
2018-08-03T14:49:18.126Z,32.90
2018-08-03T14:51:46.302Z,32.80
2018-08-03T14:54:14.530Z,32.80
2018-08-03T14:56:42.745Z,32.80
2018-08-03T14:59:10.846Z,32.90
2018-08-03T15:01:39.058Z,32.90
2018-08-03T15:04:07.240Z,32.90
2018-08-03T15:06:35.406Z,32.90
2018-08-03T15:09:05.659Z,32.90
2018-08-03T15:11:33.819Z,33.00
2018-08-03T15:14:02.001Z,33.00
2018-08-03T15:16:30.731Z,33.00
2018-08-03T15:18:58.942Z,33.00
2018-08-03T15:21:27.130Z,33.00
2018-08-03T15:23:55.299Z,33.00
2018-08-03T15:26:23.506Z,32.80
2018-08-03T15:28:51.670Z,32.60
2018-08-03T15:31:19.826Z,32.50
2018-08-03T15:33:48.073Z,32.60
2018-08-03T15:36:16.234Z,32.60
2018-08-03T15:38:44.423Z,32.60
2018-08-03T15:41:12.722Z,32.60
2018-08-03T15:43:40.942Z,32.60
2018-08-03T15:46:09.095Z,32.60
2018-08-03T15:48:37.243Z,32.60
2018-08-03T15:51:05.621Z,32.60
2018-08-03T15:53:33.762Z,32.60
2018-08-03T15:56:01.917Z,32.60
2018-08-03T15:58:30.088Z,32.60
2018-08-03T16:00:58.370Z,32.60
2018-08-03T16:03:26.655Z,32.60
2018-08-03T16:05:54.797Z,32.60
2018-08-03T16:08:22.948Z,32.70
2018-08-03T16:10:51.103Z,32.70
2018-08-03T16:13:19.327Z,32.70
2018-08-03T16:15:47.478Z,32.70
2018-08-03T16:18:15.663Z,32.60
2018-08-03T16:20:43.859Z,32.70
2018-08-03T16:23:11.998Z,32.70
2018-08-03T16:25:40.210Z,32.70
2018-08-03T16:28:08.353Z,32.70
2018-08-03T16:30:36.531Z,32.70
2018-08-03T16:33:04.789Z,32.70
2018-08-03T16:35:32.931Z,32.80
2018-08-03T16:38:01.083Z,32.70
2018-08-03T16:40:29.269Z,32.70
2018-08-03T16:42:57.427Z,32.60
2018-08-03T16:45:25.573Z,32.50
2018-08-03T16:47:53.726Z,32.40
2018-08-03T16:50:21.894Z,32.40
2018-08-03T16:52:50.108Z,32.30
2018-08-03T16:55:18.274Z,32.30
2018-08-03T16:57:46.455Z,32.20
2018-08-03T17:00:17.485Z,32.20
2018-08-03T17:02:46.022Z,32.10
2018-08-03T17:05:14.272Z,32.10
2018-08-03T17:07:42.435Z,31.80
2018-08-03T17:10:10.591Z,31.80
2018-08-03T17:12:38.765Z,31.80
2018-08-03T17:15:06.983Z,31.80
2018-08-03T17:17:35.119Z,31.80
2018-08-03T17:20:03.284Z,31.70
2018-08-03T17:22:31.467Z,31.70
2018-08-03T17:24:59.643Z,31.70
2018-08-03T17:27:27.824Z,31.50
2018-08-03T17:29:55.978Z,31.50
2018-08-03T17:32:24.152Z,31.50
2018-08-03T17:34:52.314Z,31.50
2018-08-03T17:37:20.495Z,31.40
2018-08-03T17:39:48.730Z,31.30
2018-08-03T17:42:16.950Z,31.20
2018-08-03T17:44:45.095Z,31.20
2018-08-03T17:47:13.398Z,31.10
2018-08-03T17:49:41.571Z,31.10
2018-08-03T17:52:09.865Z,31.10
2018-08-03T17:54:38.052Z,31.10
2018-08-03T17:57:06.262Z,31.10
2018-08-03T17:59:34.491Z,31.10
2018-08-03T18:02:02.681Z,31.00
2018-08-03T18:04:30.819Z,31.00
2018-08-03T18:06:58.982Z,30.90
2018-08-03T18:09:27.159Z,30.80
2018-08-03T18:11:55.275Z,30.80
2018-08-03T18:14:23.410Z,30.80
2018-08-03T18:16:51.740Z,30.60
2018-08-03T18:19:19.895Z,30.40
2018-08-03T18:21:48.192Z,29.90
2018-08-03T18:26:44.289Z,29.60
2018-08-03T18:29:12.576Z,29.50
2018-08-03T18:31:40.683Z,29.30
2018-08-03T18:34:08.854Z,29.20
2018-08-03T18:36:37.014Z,29.10
2018-08-03T18:39:07.218Z,29.00
2018-08-03T18:41:35.484Z,28.80
2018-08-03T18:44:03.652Z,28.60
2018-08-03T18:46:31.838Z,28.50
2018-08-03T18:49:00.075Z,28.40
2018-08-03T18:51:28.236Z,28.30
2018-08-03T18:53:56.451Z,28.20
2018-08-03T18:56:24.591Z,28.10
2018-08-03T18:58:52.775Z,28.00
2018-08-03T19:03:48.938Z,27.90
2018-08-03T19:06:17.095Z,27.90
2018-08-03T19:08:45.249Z,27.90
2018-08-03T19:11:13.506Z,27.80
2018-08-03T19:13:41.640Z,27.80
2018-08-03T19:16:09.786Z,27.80
2018-08-03T19:18:38.191Z,27.70
2018-08-03T19:21:06.358Z,27.70
2018-08-03T19:23:34.506Z,27.70
2018-08-03T19:26:02.674Z,27.80
2018-08-03T19:28:30.829Z,27.80
2018-08-03T19:30:59.334Z,27.80
2018-08-03T19:33:27.502Z,27.80
2018-08-03T19:35:55.790Z,27.80
2018-08-03T19:38:23.945Z,27.70
2018-08-03T19:40:52.101Z,27.70
2018-08-03T19:43:20.259Z,27.70
2018-08-03T19:45:48.460Z,27.70
2018-08-03T19:48:16.646Z,27.80
2018-08-03T19:50:44.822Z,27.80
2018-08-03T19:53:13.014Z,27.90
2018-08-03T19:55:41.235Z,28.00
2018-08-03T19:58:09.390Z,28.00
2018-08-03T20:00:37.557Z,28.10
2018-08-03T20:03:06.190Z,28.10
2018-08-03T20:05:34.342Z,28.10
2018-08-03T20:08:02.510Z,28.20
2018-08-03T20:10:30.647Z,28.20
2018-08-03T20:12:58.811Z,28.20
2018-08-03T20:15:27.770Z,28.20
2018-08-03T20:17:55.986Z,28.20
2018-08-03T20:20:24.162Z,28.20
2018-08-03T20:22:52.360Z,28.30
2018-08-03T20:25:20.546Z,28.30
2018-08-03T20:30:16.658Z,28.30
2018-08-03T20:32:44.869Z,28.30
2018-08-03T20:35:13.066Z,28.30
2018-08-03T20:37:41.330Z,28.30
2018-08-03T20:40:09.850Z,28.30
2018-08-03T20:42:38.002Z,28.30
2018-08-03T20:45:06.342Z,28.30
2018-08-03T20:47:34.520Z,28.30
2018-08-03T20:50:02.756Z,28.30
2018-08-03T20:52:30.986Z,28.20
2018-08-03T20:54:59.163Z,28.20
2018-08-03T20:57:27.326Z,28.20
2018-08-03T20:59:55.518Z,28.20
2018-08-03T21:02:24.220Z,28.10
2018-08-03T21:04:52.398Z,28.10
2018-08-03T21:07:20.534Z,28.10
2018-08-03T21:09:48.767Z,28.10
2018-08-03T21:12:16.960Z,28.00
2018-08-03T21:14:45.115Z,28.00
2018-08-03T21:17:13.253Z,28.00
2018-08-03T21:19:41.435Z,28.00
2018-08-03T21:22:09.606Z,27.90
2018-08-03T21:24:37.763Z,27.90
2018-08-03T21:27:06.140Z,27.90
2018-08-03T21:29:34.422Z,27.80
2018-08-03T21:32:02.602Z,27.80
2018-08-03T21:34:30.754Z,27.80
2018-08-03T21:36:58.947Z,27.80
2018-08-03T21:39:27.114Z,27.70
2018-08-03T21:41:55.334Z,27.70
2018-08-03T21:44:23.487Z,27.70
2018-08-03T21:46:51.641Z,27.60
2018-08-03T21:49:19.798Z,27.50
2018-08-03T21:51:47.989Z,27.50
2018-08-03T21:54:16.162Z,27.50
2018-08-03T21:56:44.318Z,27.50
2018-08-03T21:59:12.502Z,27.40
2018-08-03T22:01:40.654Z,27.40
2018-08-03T22:04:08.834Z,27.40
2018-08-03T22:06:36.991Z,27.30
2018-08-03T22:09:07.446Z,27.30
2018-08-03T22:11:35.610Z,27.30
2018-08-03T22:14:03.770Z,27.20
2018-08-03T22:16:31.927Z,27.20
2018-08-03T22:21:28.040Z,27.20
2018-08-03T22:23:56.210Z,27.10
2018-08-03T22:26:24.347Z,27.10
2018-08-03T22:28:52.554Z,27.10
2018-08-03T22:31:20.710Z,27.10
2018-08-03T22:33:48.960Z,27.10
2018-08-03T22:36:17.106Z,27.10
2018-08-03T22:38:45.891Z,27.00
2018-08-03T22:41:14.100Z,27.10
2018-08-03T22:43:42.314Z,27.10
2018-08-03T22:46:10.450Z,27.10
2018-08-03T22:48:38.607Z,27.00
2018-08-03T22:51:06.799Z,27.00
2018-08-03T22:53:34.937Z,26.90
2018-08-03T22:56:03.124Z,26.90
2018-08-03T22:58:31.278Z,26.90
2018-08-03T23:00:59.466Z,26.80
2018-08-03T23:03:27.738Z,26.80
2018-08-03T23:05:55.914Z,26.80
2018-08-03T23:08:24.073Z,26.70
2018-08-03T23:10:52.266Z,26.60
2018-08-03T23:13:20.465Z,26.60
2018-08-03T23:15:48.681Z,26.50
2018-08-03T23:18:16.825Z,26.50
2018-08-03T23:20:44.982Z,26.50
2018-08-03T23:23:13.162Z,26.40
2018-08-03T23:25:41.355Z,26.40
2018-08-03T23:28:09.518Z,26.40
2018-08-03T23:30:37.677Z,26.30
2018-08-03T23:33:05.838Z,26.30
2018-08-03T23:35:34.001Z,26.30
2018-08-03T23:38:02.295Z,26.30
2018-08-03T23:40:31.310Z,26.20
2018-08-03T23:42:59.471Z,26.20
2018-08-03T23:45:27.639Z,26.20
2018-08-03T23:47:55.844Z,26.10
2018-08-03T23:52:51.947Z,26.10
2018-08-03T23:55:20.106Z,26.10
2018-08-03T23:57:48.319Z,26.00
